ESGJ/JKG METAR and TAF weather

Enter ICAO airport designator
Station Type Date Time Source
ESGJ METAR 2022/01/29 01:20 UTC NOAA

ESGJ 290120Z AUTO 21013KT 9999 -RA BKN008/// OVC010/// 01/01 Q1010 RESG


Station Type Date Time Source
ESGJ Decoded METAR 2022/01/29 01:20 UTC NOAA

Jonkoping Flygplats, Sweden (ESGJ) 57-46N 014-05E 232M
Jan 28, 2022 - 08:20 PM EST / 2022.01.29 0120 UTC
Wind: from the SSW (210 degrees) at 15 MPH (13 KT):0
Visibility: greater than 7 mile(s):0
Sky conditions: overcast
Weather: light rain
Temperature: 33 F (1 C)
Windchill: 23 F (-5 C):1
Dew Point: 33 F (1 C)
Relative Humidity: 100%
Pressure (altimeter): 29.83 in. Hg (1010 hPa)
ob: ESGJ 290120Z AUTO 21013KT 9999 -RA BKN008/// OVC010/// 01/01 Q1010 RESG
cycle: 1

Station Type Date Time Source
ESGJ TAF 2015/05/01 23:06 UTC NOAA

TAF TAF ESGJ 302359Z 3023/0101 CNL

Example: see airport list